TimeEDT,TemperatureF,Dew PointF,Humidity,Sea Level PressureIn,VisibilityMPH,Wind Direction,Wind SpeedMPH,Gust SpeedMPH,PrecipitationIn,Events,Conditions,WindDirDegrees,DateUTC
12:53 AM,75.9,68.0,76,30.25,10.0,SSE,3.5,-,N/A,,Clear,150,2013-07-15 04:53:00
1:53 AM,73.9,68.0,82,30.25,10.0,South,6.9,-,N/A,,Clear,170,2013-07-15 05:53:00
2:53 AM,73.9,68.0,82,30.25,10.0,Calm,Calm,-,N/A,,Clear,0,2013-07-15 06:53:00
3:53 AM,73.9,68.0,82,30.26,10.0,Calm,Calm,-,N/A,,Clear,0,2013-07-15 07:53:00
4:53 AM,73.0,68.0,84,30.27,10.0,NE,3.5,-,N/A,,Clear,50,2013-07-15 08:53:00
5:53 AM,72.0,68.0,87,30.27,8.0,Calm,Calm,-,N/A,,Clear,0,2013-07-15 09:53:00
6:53 AM,72.0,68.0,87,30.28,6.0,Calm,Calm,-,N/A,,Clear,0,2013-07-15 10:53:00
7:53 AM,75.0,69.1,82,30.29,7.0,East,3.5,-,N/A,,Partly Cloudy,90,2013-07-15 11:53:00
8:53 AM,80.1,69.1,69,30.30,10.0,East,3.5,-,N/A,,Partly Cloudy,90,2013-07-15 12:53:00
9:53 AM,82.9,71.1,67,30.29,10.0,Calm,Calm,-,N/A,,Clear,0,2013-07-15 13:53:00
10:53 AM,84.9,71.1,63,30.30,10.0,Calm,Calm,-,N/A,,Partly Cloudy,0,2013-07-15 14:53:00
11:53 AM,89.1,71.1,55,30.29,10.0,Variable,3.5,-,N/A,,Scattered Clouds,0,2013-07-15 15:53:00
12:53 PM,89.1,70.0,53,30.29,10.0,East,3.5,-,N/A,,Scattered Clouds,90,2013-07-15 16:53:00
1:53 PM,91.9,71.1,50,30.27,10.0,Variable,3.5,-,N/A,,Scattered Clouds,0,2013-07-15 17:53:00
2:53 PM,93.9,70.0,46,30.26,10.0,Variable,3.5,-,N/A,,Scattered Clouds,0,2013-07-15 18:53:00
3:53 PM,91.9,69.1,47,30.25,10.0,East,3.5,-,N/A,,Mostly Cloudy,100,2013-07-15 19:53:00
4:53 PM,91.9,70.0,48,30.24,10.0,NNE,5.8,-,N/A,,Mostly Cloudy,30,2013-07-15 20:53:00
5:53 PM,89.1,71.1,55,30.24,10.0,NNE,3.5,-,0.00,Rain,Light Rain,20,2013-07-15 21:53:00
6:29 PM,78.8,73.4,83,30.25,4.0,NE,9.2,-,0.19,Rain,Rain,40,2013-07-15 22:29:00
6:53 PM,81.0,73.0,77,30.24,10.0,ENE,8.1,-,0.23,Rain,Light Rain,60,2013-07-15 22:53:00
7:53 PM,82.9,75.0,77,30.23,10.0,SSW,8.1,-,0.01,,Mostly Cloudy,200,2013-07-15 23:53:00
8:53 PM,81.0,73.0,77,30.26,10.0,SSW,6.9,-,N/A,,Overcast,210,2013-07-16 00:53:00
9:26 PM,80.6,73.4,79,30.28,10.0,SSE,4.6,-,0.00,Rain-Thunderstorm,Light Thunderstorms and Rain,150,2013-07-16 01:26:00
9:53 PM,78.1,73.9,87,30.26,3.0,East,3.5,-,0.05,Rain-Thunderstorm,Heavy Thunderstorms and Rain,100,2013-07-16 01:53:00
10:26 PM,78.8,73.4,83,30.29,10.0,ESE,3.5,-,0.02,,Overcast,120,2013-07-16 02:26:00
10:53 PM,78.1,73.9,87,30.27,10.0,East,5.8,-,0.02,,Overcast,100,2013-07-16 02:53:00
11:53 PM,75.9,73.0,91,30.26,10.0,South,4.6,-,N/A,,Mostly Cloudy,180,2013-07-16 03:53:00